createdAt,value
2023-05-23T00:01:25.711Z,18.81
2023-05-23T00:03:58.002Z,18.82
2023-05-23T00:06:29.752Z,18.81
2023-05-23T00:09:02.076Z,18.77
2023-05-23T00:11:33.780Z,18.72
2023-05-23T00:14:08.323Z,18.61
2023-05-23T00:16:45.586Z,18.53
2023-05-23T00:19:20.182Z,18.45
2023-05-23T00:21:53.865Z,18.40
2023-05-23T00:24:25.817Z,18.31
2023-05-23T00:26:59.030Z,18.20
2023-05-23T00:29:30.746Z,18.21
2023-05-23T00:32:02.616Z,18.25
2023-05-23T00:34:34.623Z,18.27
2023-05-23T00:37:06.334Z,18.29
2023-05-23T00:39:37.942Z,18.31
2023-05-23T00:42:09.572Z,18.34
2023-05-23T00:44:41.238Z,18.36
2023-05-23T00:47:13.966Z,18.37
2023-05-23T00:49:45.834Z,18.36
2023-05-23T00:52:17.654Z,18.35
2023-05-23T00:54:49.722Z,18.34
2023-05-23T00:57:22.718Z,18.34
2023-05-23T00:59:54.543Z,18.35
2023-05-23T01:02:27.916Z,18.30
2023-05-23T01:05:03.297Z,18.27
2023-05-23T01:07:34.940Z,18.19
2023-05-23T01:10:07.026Z,18.13
2023-05-23T01:13:11.610Z,18.11
2023-05-23T01:15:49.145Z,18.07
2023-05-23T01:18:47.606Z,18.00
2023-05-23T01:21:19.684Z,17.93
2023-05-23T01:24:00.268Z,17.87
2023-05-23T01:26:48.333Z,17.76
2023-05-23T01:29:24.779Z,17.66
2023-05-23T01:31:58.364Z,17.59
2023-05-23T01:34:31.472Z,17.58
2023-05-23T01:37:07.928Z,17.59
2023-05-23T01:39:42.179Z,17.59
2023-05-23T01:42:14.132Z,17.62
2023-05-23T01:44:46.283Z,17.66
2023-05-23T01:47:18.114Z,17.66
2023-05-23T01:49:51.102Z,17.68
2023-05-23T01:52:23.369Z,17.70
2023-05-23T01:54:56.290Z,17.65
2023-05-23T01:57:29.748Z,17.65
2023-05-23T02:00:06.398Z,17.67
2023-05-23T02:02:45.161Z,17.70
2023-05-23T02:05:17.285Z,17.66
2023-05-23T02:07:50.186Z,17.65
2023-05-23T02:10:22.712Z,17.65
2023-05-23T02:12:54.393Z,17.63
2023-05-23T02:15:26.139Z,17.63
2023-05-23T02:17:57.899Z,17.65
2023-05-23T02:20:29.661Z,17.66
2023-05-23T02:23:01.336Z,17.65
2023-05-23T02:25:32.994Z,17.55
2023-05-23T02:28:04.634Z,17.45
2023-05-23T02:30:36.299Z,17.35
2023-05-23T02:33:09.218Z,17.30
2023-05-23T02:35:41.314Z,17.16
2023-05-23T02:38:15.082Z,17.01
2023-05-23T02:40:46.899Z,17.01
2023-05-23T02:43:18.604Z,16.99
2023-05-23T02:45:50.233Z,16.97
2023-05-23T02:48:21.852Z,16.87
2023-05-23T02:50:53.707Z,16.81
2023-05-23T02:53:25.373Z,16.73
2023-05-23T02:55:57.012Z,16.66
2023-05-23T02:58:29.930Z,16.61
2023-05-23T03:01:06.994Z,16.61
2023-05-23T03:03:40.135Z,16.58
2023-05-23T03:06:14.523Z,16.56
2023-05-23T03:08:46.424Z,16.62
2023-05-23T03:11:18.080Z,16.69
2023-05-23T03:13:49.705Z,16.76
2023-05-23T03:16:22.434Z,16.76
2023-05-23T03:18:54.201Z,16.77
2023-05-23T03:21:25.981Z,16.82
2023-05-23T03:23:57.844Z,16.85
2023-05-23T03:26:29.483Z,16.89
2023-05-23T03:29:01.484Z,16.90
2023-05-23T03:31:33.144Z,16.88
2023-05-23T03:34:08.362Z,16.92
2023-05-23T03:36:41.344Z,16.95
2023-05-23T03:39:13.383Z,16.99
2023-05-23T03:41:45.076Z,17.03
2023-05-23T03:44:17.105Z,17.06
2023-05-23T03:46:49.369Z,17.05
2023-05-23T03:49:22.221Z,17.01
2023-05-23T03:51:53.909Z,17.01
2023-05-23T03:54:26.044Z,16.93
2023-05-23T03:56:57.835Z,16.87
2023-05-23T03:59:29.978Z,16.77
2023-05-23T04:02:02.547Z,16.72
2023-05-23T04:04:34.506Z,16.73
2023-05-23T04:07:08.644Z,16.71
2023-05-23T04:09:40.461Z,16.69
2023-05-23T04:12:14.375Z,16.66
2023-05-23T04:14:48.536Z,16.68
2023-05-23T04:17:21.248Z,16.68
2023-05-23T04:19:54.376Z,16.63
2023-05-23T04:22:26.079Z,16.68
2023-05-23T04:24:58.257Z,16.72
2023-05-23T04:27:34.658Z,16.75
2023-05-23T04:30:09.254Z,16.89
2023-05-23T04:32:44.260Z,16.99
2023-05-23T04:35:15.986Z,17.08
2023-05-23T04:37:47.692Z,17.19
2023-05-23T04:40:19.368Z,17.24
2023-05-23T04:43:03.999Z,17.22
2023-05-23T04:46:11.024Z,17.22
2023-05-23T04:48:46.718Z,17.29
2023-05-23T04:51:18.302Z,17.31
2023-05-23T04:53:57.386Z,17.36
2023-05-23T04:56:29.687Z,17.49
2023-05-23T04:59:02.356Z,17.52
2023-05-23T05:01:34.976Z,17.59
2023-05-23T05:04:06.921Z,17.58
2023-05-23T05:06:41.315Z,17.66
2023-05-23T05:09:14.249Z,17.71
2023-05-23T05:11:47.794Z,17.82
2023-05-23T05:14:19.820Z,17.91
2023-05-23T05:16:51.692Z,18.05
2023-05-23T05:19:25.765Z,18.16
2023-05-23T05:21:57.916Z,18.26
2023-05-23T05:24:29.895Z,18.30
2023-05-23T05:27:01.565Z,18.40
2023-05-23T05:29:33.897Z,18.56
2023-05-23T05:32:08.645Z,18.72
2023-05-23T05:34:40.640Z,18.89
2023-05-23T05:37:14.230Z,19.02
2023-05-23T05:39:47.322Z,19.15
2023-05-23T05:42:19.543Z,19.32
2023-05-23T05:44:51.299Z,19.67
2023-05-23T05:47:23.083Z,20.09
2023-05-23T05:50:27.844Z,20.60
2023-05-23T05:52:59.680Z,20.90
2023-05-23T05:55:33.169Z,21.22
2023-05-23T05:58:05.364Z,21.41
2023-05-23T06:00:51.334Z,21.37
2023-05-23T06:03:24.751Z,21.50
2023-05-23T06:05:59.694Z,21.61
2023-05-23T06:08:31.718Z,21.76
2023-05-23T06:11:03.497Z,22.11
2023-05-23T06:13:35.927Z,22.49
2023-05-23T06:16:07.873Z,22.92
2023-05-23T06:18:39.770Z,23.25
2023-05-23T06:21:11.618Z,23.46
2023-05-23T06:23:43.610Z,23.45
2023-05-23T06:26:18.467Z,23.56
2023-05-23T06:28:50.508Z,23.55
2023-05-23T06:31:22.352Z,23.40
2023-05-23T06:33:54.617Z,23.37
2023-05-23T06:36:26.550Z,23.16
2023-05-23T06:39:00.188Z,22.95
2023-05-23T06:41:32.090Z,22.84
2023-05-23T06:44:03.898Z,22.74
2023-05-23T06:46:38.280Z,22.60
2023-05-23T06:49:15.586Z,22.47
2023-05-23T06:51:50.052Z,22.37
2023-05-23T06:54:21.933Z,22.07
2023-05-23T06:56:54.327Z,21.55
2023-05-23T06:59:26.126Z,21.36
2023-05-23T07:01:59.649Z,21.34
2023-05-23T07:04:31.820Z,21.38
2023-05-23T07:07:08.501Z,21.23
2023-05-23T07:09:43.261Z,21.13
2023-05-23T07:12:19.843Z,21.11
2023-05-23T07:14:52.987Z,21.25
2023-05-23T07:17:26.039Z,21.28
2023-05-23T07:19:57.833Z,21.33
2023-05-23T07:22:29.838Z,21.27
2023-05-23T07:25:01.755Z,21.30
2023-05-23T07:27:37.505Z,21.17
2023-05-23T07:30:10.008Z,21.22
2023-05-23T07:32:42.979Z,21.10
2023-05-23T07:35:18.828Z,20.83
2023-05-23T07:37:51.810Z,20.60
2023-05-23T07:40:23.784Z,20.58
2023-05-23T07:42:55.932Z,20.66
2023-05-23T07:45:27.832Z,20.87
2023-05-23T07:47:59.955Z,21.09
2023-05-23T07:50:33.898Z,21.22
2023-05-23T07:53:06.509Z,21.35
2023-05-23T07:55:39.218Z,21.53
2023-05-23T07:58:11.016Z,21.51
2023-05-23T08:00:44.308Z,21.35
2023-05-23T08:03:29.839Z,21.51
2023-05-23T08:06:10.219Z,21.68
2023-05-23T08:08:43.804Z,21.72
2023-05-23T08:11:15.818Z,21.99
2023-05-23T08:13:51.509Z,22.11
2023-05-23T08:16:41.823Z,22.35
2023-05-23T08:19:22.001Z,22.48
2023-05-23T08:21:54.481Z,22.86
2023-05-23T08:24:26.970Z,22.98
2023-05-23T08:26:59.369Z,22.96
2023-05-23T08:32:31.202Z,22.91
2023-05-23T09:49:27.588Z,20.90
2023-05-23T09:52:01.275Z,20.78
2023-05-23T09:54:33.075Z,20.35
2023-05-23T09:57:10.270Z,20.24
2023-05-23T09:59:45.424Z,20.10
2023-05-23T10:02:23.476Z,19.76
2023-05-23T10:04:57.248Z,19.80
2023-05-23T10:07:29.567Z,19.93
2023-05-23T10:10:05.987Z,20.08
2023-05-23T10:12:44.503Z,20.07
2023-05-23T10:15:18.594Z,20.01
2023-05-23T10:18:06.033Z,20.00
2023-05-23T10:20:44.243Z,19.75
2023-05-23T10:23:16.928Z,19.73
2023-05-23T10:25:49.085Z,19.60
2023-05-23T10:28:21.818Z,19.50
2023-05-23T10:30:53.683Z,19.65
2023-05-23T10:33:29.213Z,19.70
2023-05-23T10:36:09.265Z,19.80
2023-05-23T10:38:56.462Z,19.92
2023-05-23T10:42:01.135Z,19.98
2023-05-23T10:44:33.094Z,20.21
2023-05-23T10:47:05.249Z,20.47
2023-05-23T10:49:45.391Z,20.64
2023-05-23T10:52:18.305Z,20.82
2023-05-23T10:54:55.000Z,20.91
2023-05-23T10:57:29.990Z,20.97
2023-05-23T11:00:01.851Z,20.96
2023-05-23T11:02:34.020Z,20.94
2023-05-23T11:05:28.115Z,20.84
2023-05-23T11:08:15.286Z,20.79
2023-05-23T11:11:01.191Z,20.84
2023-05-23T11:14:02.811Z,20.75
2023-05-23T11:16:42.768Z,20.74
2023-05-23T11:19:30.794Z,20.79
2023-05-23T11:22:06.084Z,20.69
2023-05-23T11:24:52.031Z,20.60
2023-05-23T11:27:35.109Z,20.59
2023-05-23T11:30:17.477Z,20.52
2023-05-23T11:32:54.822Z,20.53
2023-05-23T11:35:27.755Z,20.56
2023-05-23T11:37:59.915Z,20.59
2023-05-23T11:40:37.220Z,20.63
2023-05-23T11:43:11.339Z,20.73
2023-05-23T11:45:43.338Z,20.76
2023-05-23T11:48:16.912Z,20.60
2023-05-23T11:50:53.108Z,20.69
2023-05-23T11:53:27.860Z,20.88
2023-05-23T11:56:02.633Z,21.07
2023-05-23T11:58:39.499Z,21.16
2023-05-23T12:01:13.723Z,21.22
2023-05-23T12:03:51.349Z,21.26
2023-05-23T12:06:25.118Z,21.35
2023-05-23T12:08:59.613Z,21.42
2023-05-23T12:11:31.904Z,21.43
2023-05-23T12:14:06.564Z,21.68
2023-05-23T12:16:38.403Z,21.75
2023-05-23T12:19:12.028Z,21.73
2023-05-23T12:21:48.960Z,21.85
2023-05-23T12:24:22.875Z,22.25
2023-05-23T12:26:57.821Z,22.76
2023-05-23T12:29:33.684Z,23.02
2023-05-23T12:32:07.568Z,23.19
2023-05-23T12:34:45.658Z,23.19
2023-05-23T12:37:20.152Z,23.21
2023-05-23T12:39:52.709Z,23.19
2023-05-23T12:42:24.553Z,23.36
2023-05-23T12:44:56.617Z,23.43
2023-05-23T12:47:28.413Z,23.54
2023-05-23T12:50:00.553Z,23.64
2023-05-23T12:52:32.390Z,23.58
2023-05-23T12:55:07.179Z,23.44
2023-05-23T12:57:39.749Z,23.23
2023-05-23T13:00:12.671Z,23.18
2023-05-23T13:02:44.465Z,23.04
2023-05-23T13:05:17.213Z,22.97
2023-05-23T13:07:49.188Z,23.00
2023-05-23T13:10:24.061Z,22.98
2023-05-23T13:12:55.903Z,22.79
2023-05-23T13:15:27.736Z,22.60
2023-05-23T13:18:00.343Z,22.24
2023-05-23T13:20:32.322Z,22.18
2023-05-23T13:23:04.227Z,22.28
2023-05-23T13:25:38.987Z,22.56
2023-05-23T13:28:11.120Z,22.90
2023-05-23T13:30:45.828Z,23.09
2023-05-23T13:33:19.152Z,22.93
2023-05-23T13:35:51.637Z,22.73
2023-05-23T13:38:25.468Z,22.73
2023-05-23T13:40:58.762Z,22.86
2023-05-23T13:43:31.199Z,22.95
2023-05-23T13:46:03.258Z,23.08
2023-05-23T13:48:35.324Z,23.18
2023-05-23T13:51:08.649Z,23.25
2023-05-23T13:53:40.556Z,23.28
2023-05-23T13:56:12.569Z,23.41
2023-05-23T13:58:46.671Z,23.44
2023-05-23T14:01:18.823Z,23.41
2023-05-23T14:03:50.854Z,23.33
2023-05-23T14:06:22.748Z,23.38
2023-05-23T14:08:54.718Z,23.45
2023-05-23T14:11:26.546Z,23.46
2023-05-23T14:13:58.294Z,23.45
2023-05-23T14:16:30.296Z,23.32
2023-05-23T14:19:02.272Z,23.22
2023-05-23T14:21:34.416Z,23.15
2023-05-23T14:24:06.350Z,23.17
2023-05-23T14:26:38.207Z,23.18
2023-05-23T14:29:10.019Z,23.25
2023-05-23T14:31:42.027Z,23.13
2023-05-23T14:34:13.895Z,22.92
2023-05-23T14:36:48.980Z,23.06
2023-05-23T14:39:20.775Z,22.95
2023-05-23T14:41:52.756Z,22.62
2023-05-23T14:44:25.429Z,22.55
2023-05-23T14:46:57.484Z,22.57
2023-05-23T14:49:29.308Z,22.30
2023-05-23T14:52:01.239Z,22.23
2023-05-23T14:54:33.193Z,22.10
2023-05-23T14:57:05.226Z,22.12
2023-05-23T14:59:37.125Z,22.12
2023-05-23T15:02:09.117Z,21.97
2023-05-23T15:04:41.061Z,21.90
2023-05-23T15:07:14.915Z,21.92
2023-05-23T15:09:47.873Z,22.04
2023-05-23T15:12:20.944Z,22.14
2023-05-23T15:14:52.683Z,22.19
2023-05-23T15:17:26.726Z,22.23
2023-05-23T15:19:58.787Z,22.19
2023-05-23T15:22:37.896Z,22.13
2023-05-23T15:25:11.576Z,22.17
2023-05-23T15:27:44.965Z,22.12
2023-05-23T15:30:17.087Z,22.04
2023-05-23T15:32:49.346Z,21.96
2023-05-23T15:35:21.227Z,21.90
2023-05-23T15:37:53.143Z,21.98
2023-05-23T15:40:25.094Z,22.00
2023-05-23T15:42:56.887Z,21.93
2023-05-23T15:45:28.676Z,21.91
2023-05-23T15:48:00.653Z,21.93
2023-05-23T15:50:32.423Z,21.95
2023-05-23T15:53:04.279Z,21.91
2023-05-23T15:55:37.219Z,21.89
2023-05-23T15:58:10.718Z,21.98
2023-05-23T16:00:42.875Z,21.98
2023-05-23T16:03:14.987Z,21.92
2023-05-23T16:05:46.786Z,21.65
2023-05-23T16:08:21.546Z,21.53
2023-05-23T16:10:53.321Z,21.58
2023-05-23T16:13:25.189Z,21.61
2023-05-23T16:15:57.190Z,21.51
2023-05-23T16:18:29.040Z,21.45
2023-05-23T16:21:00.825Z,21.34
2023-05-23T16:23:32.715Z,21.37
2023-05-23T16:26:05.105Z,21.35
2023-05-23T16:28:36.914Z,21.28
2023-05-23T16:31:08.769Z,21.13
2023-05-23T16:33:40.634Z,21.18
2023-05-23T16:36:12.438Z,21.06
2023-05-23T16:38:44.373Z,21.05
2023-05-23T16:41:16.442Z,21.06
2023-05-23T16:43:48.302Z,21.01
2023-05-23T16:46:22.267Z,21.01
2023-05-23T16:48:54.377Z,21.00
2023-05-23T16:51:26.247Z,20.86
2023-05-23T16:53:58.205Z,20.78
2023-05-23T16:56:30.125Z,20.67
2023-05-23T16:59:01.962Z,20.69
2023-05-23T17:01:36.100Z,20.79
2023-05-23T17:04:07.963Z,20.72
2023-05-23T17:06:39.974Z,20.42
2023-05-23T17:09:13.844Z,20.22
2023-05-23T17:11:45.706Z,20.27
2023-05-23T17:14:17.697Z,20.32
2023-05-23T17:16:49.472Z,20.33
2023-05-23T17:19:21.778Z,20.35
2023-05-23T17:21:54.253Z,20.34
2023-05-23T17:24:26.191Z,20.18
2023-05-23T17:26:58.045Z,20.07
2023-05-23T17:29:29.912Z,20.02
2023-05-23T17:32:01.866Z,20.04
2023-05-23T17:34:35.857Z,19.96
2023-05-23T17:37:08.344Z,20.01
2023-05-23T17:39:40.277Z,20.12
2023-05-23T17:42:12.861Z,20.23
2023-05-23T17:44:45.813Z,20.14
2023-05-23T17:47:18.545Z,20.09
2023-05-23T17:49:50.615Z,20.01
2023-05-23T17:52:22.418Z,20.02
2023-05-23T17:54:57.975Z,19.94
2023-05-23T17:57:32.851Z,19.86
2023-05-23T18:00:07.893Z,19.68
2023-05-23T18:02:47.104Z,19.40
2023-05-23T18:05:24.713Z,19.29
2023-05-23T18:07:56.856Z,19.31
2023-05-23T18:10:29.898Z,19.31
2023-05-23T18:13:01.663Z,19.24
2023-05-23T18:15:34.848Z,19.12
2023-05-23T18:18:06.866Z,18.96
2023-05-23T18:20:38.823Z,18.87
2023-05-23T18:23:18.464Z,18.86
2023-05-23T18:25:54.436Z,18.85
2023-05-23T18:28:26.466Z,18.89
2023-05-23T18:30:58.345Z,18.80
2023-05-23T18:33:32.301Z,18.84
2023-05-23T18:36:10.082Z,18.83
2023-05-23T18:38:42.159Z,18.81
2023-05-23T18:41:15.072Z,18.64
2023-05-23T18:43:46.953Z,18.52
2023-05-23T18:46:18.812Z,18.48
2023-05-23T18:48:51.045Z,18.30
2023-05-23T18:51:26.797Z,18.21
2023-05-23T18:53:59.910Z,18.21
2023-05-23T18:56:34.877Z,18.08
2023-05-23T18:59:06.828Z,18.09
2023-05-23T19:01:38.711Z,18.06
2023-05-23T19:04:10.656Z,18.08
2023-05-23T19:06:45.519Z,17.95
2023-05-23T19:09:19.722Z,17.99
2023-05-23T19:11:51.570Z,17.99
2023-05-23T19:14:23.919Z,18.00
2023-05-23T19:16:55.728Z,18.06
2023-05-23T19:19:30.629Z,17.94
2023-05-23T19:22:03.540Z,17.86
2023-05-23T19:24:37.723Z,17.79
2023-05-23T19:27:09.726Z,17.65
2023-05-23T19:29:42.348Z,17.23
2023-05-23T19:32:15.303Z,16.98
2023-05-23T19:34:47.566Z,16.85
2023-05-23T19:37:19.404Z,16.74
2023-05-23T19:39:51.181Z,16.70
2023-05-23T19:42:23.802Z,16.52
2023-05-23T19:44:55.559Z,16.47
2023-05-23T19:47:30.222Z,16.39
2023-05-23T19:50:02.785Z,16.35
2023-05-23T19:52:34.580Z,16.20
2023-05-23T19:55:07.046Z,16.15
2023-05-23T19:57:38.861Z,16.17
2023-05-23T20:00:11.250Z,16.16
2023-05-23T20:02:43.154Z,16.07
2023-05-23T20:05:14.960Z,15.97
2023-05-23T20:07:46.952Z,15.91
2023-05-23T20:10:18.721Z,15.92
2023-05-23T20:12:50.740Z,15.87
2023-05-23T20:15:35.426Z,15.83
2023-05-23T20:18:11.682Z,15.79
2023-05-23T20:20:43.669Z,15.80
2023-05-23T20:23:15.724Z,15.68
2023-05-23T20:25:47.566Z,15.61
2023-05-23T20:28:19.389Z,15.60
2023-05-23T20:30:51.698Z,15.62
2023-05-23T20:33:23.738Z,15.57
2023-05-23T20:35:55.680Z,15.49
2023-05-23T20:38:27.592Z,15.49
2023-05-23T20:41:02.799Z,15.43
2023-05-23T20:43:37.362Z,15.40
2023-05-23T20:46:09.989Z,15.38
2023-05-23T20:48:42.021Z,15.30
2023-05-23T20:51:14.352Z,15.27
2023-05-23T20:53:46.340Z,15.35
2023-05-23T20:56:18.269Z,15.24
2023-05-23T20:58:50.167Z,15.20
2023-05-23T21:01:23.046Z,15.15
2023-05-23T21:03:55.648Z,15.08
2023-05-23T21:06:27.397Z,15.06
2023-05-23T21:09:00.347Z,15.02
2023-05-23T21:11:32.140Z,15.02
2023-05-23T21:14:03.901Z,15.02
2023-05-23T21:16:35.674Z,14.96
2023-05-23T21:19:07.562Z,14.92
2023-05-23T21:21:39.547Z,14.86
2023-05-23T21:24:11.298Z,14.86
2023-05-23T21:26:43.576Z,14.92
2023-05-23T21:29:16.652Z,14.95
2023-05-23T21:31:48.605Z,15.02
2023-05-23T21:34:24.267Z,15.03
2023-05-23T21:36:56.489Z,15.02
2023-05-23T21:39:39.271Z,14.98
2023-05-23T21:42:20.244Z,14.92
2023-05-23T21:44:52.101Z,14.87
2023-05-23T21:47:25.144Z,14.74
2023-05-23T21:49:57.047Z,14.71
2023-05-23T21:52:28.789Z,14.69
2023-05-23T21:55:00.573Z,14.70
2023-05-23T21:57:32.574Z,14.71
2023-05-23T22:00:04.846Z,14.75
2023-05-23T22:02:44.660Z,14.77
2023-05-23T22:05:16.768Z,14.80
2023-05-23T22:07:48.588Z,14.82
2023-05-23T22:10:20.432Z,14.81
2023-05-23T22:12:52.183Z,14.80
2023-05-23T22:15:24.204Z,14.83
2023-05-23T22:17:56.288Z,14.87
2023-05-23T22:20:29.742Z,14.86
2023-05-23T22:23:03.653Z,14.81
2023-05-23T22:25:38.338Z,14.80
2023-05-23T22:28:12.359Z,14.83
2023-05-23T22:30:44.426Z,14.79
2023-05-23T22:33:16.403Z,14.72
2023-05-23T22:35:48.145Z,14.72
2023-05-23T22:38:19.900Z,14.69
2023-05-23T22:40:51.692Z,14.68
2023-05-23T22:43:23.552Z,14.63
2023-05-23T22:45:55.880Z,14.53
2023-05-23T22:48:28.286Z,14.55
2023-05-23T22:51:04.114Z,14.56
2023-05-23T22:53:35.912Z,14.50
2023-05-23T22:56:07.666Z,14.54
2023-05-23T22:58:39.483Z,14.52
2023-05-23T23:01:11.331Z,14.46
2023-05-23T23:03:43.256Z,14.40
2023-05-23T23:06:15.122Z,14.40
2023-05-23T23:08:47.698Z,14.38
2023-05-23T23:11:19.461Z,14.38
2023-05-23T23:13:51.229Z,14.32
2023-05-23T23:16:24.542Z,14.21
2023-05-23T23:18:56.607Z,14.14
2023-05-23T23:21:28.437Z,14.06
2023-05-23T23:24:00.307Z,14.05
2023-05-23T23:26:32.119Z,14.01
2023-05-23T23:29:04.098Z,13.99
2023-05-23T23:31:36.113Z,14.00
2023-05-23T23:34:08.366Z,14.02
2023-05-23T23:36:40.209Z,14.01
2023-05-23T23:39:11.919Z,13.99
2023-05-23T23:41:43.763Z,14.02
2023-05-23T23:44:18.743Z,14.06
2023-05-23T23:46:50.570Z,14.06
2023-05-23T23:49:22.399Z,13.99
2023-05-23T23:51:54.298Z,13.93
2023-05-23T23:54:26.432Z,13.91
2023-05-23T23:56:58.544Z,13.89
2023-05-23T23:59:30.310Z,13.98
